Flugwetter

[source: ADDS]
METAR
LOWL 201520Z VRB01KT CAVOK 14/09 Q1017 NOSIG =
TAF
TAF LOWL 201115Z 2012/2112 VRB02KT 8000 BKN007 TX15/2015Z TN08/2104Z BECMG 2012/2013 FEW010 BECMG 2020/2022 2000 BR TEMPO 2022/2106 0300 FG BKN001 BECMG 2106/2108 9000 SCT050 BKN070 =